createdAt,value
2018-10-19T00:00:55.257Z,82.68
2018-10-19T00:01:55.233Z,81.54
2018-10-19T00:02:56.728Z,80.49
2018-10-19T00:03:55.193Z,81.15
2018-10-19T00:04:55.176Z,80.68
2018-10-19T00:05:55.143Z,81.06
2018-10-19T00:06:55.119Z,79.72
2018-10-19T00:07:55.096Z,79.06
2018-10-19T00:08:55.084Z,78.39
2018-10-19T00:09:55.051Z,78.20
2018-10-19T00:10:55.080Z,78.30
2018-10-19T00:11:55.005Z,77.91
2018-10-19T00:12:55.058Z,77.06
2018-10-19T00:13:54.960Z,76.77
2018-10-19T00:14:54.955Z,76.10
2018-10-19T00:15:54.914Z,76.20
2018-10-19T00:16:54.928Z,76.20
2018-10-19T00:17:54.867Z,76.96
2018-10-19T00:18:54.844Z,76.29
2018-10-19T00:19:57.075Z,77.34
2018-10-19T00:20:54.831Z,76.39
2018-10-19T00:21:54.775Z,77.34
2018-10-19T00:22:54.784Z,77.15
2018-10-19T00:23:54.729Z,76.77
2018-10-19T00:24:54.709Z,76.96
2018-10-19T00:25:54.683Z,78.73
2018-10-19T00:26:54.702Z,78.16
2018-10-19T00:27:54.637Z,78.25
2018-10-19T00:28:54.668Z,79.97
2018-10-19T00:29:54.591Z,79.21
2018-10-19T00:30:54.568Z,78.73
2018-10-19T00:31:54.548Z,78.35
2018-10-19T00:32:54.534Z,78.35
2018-10-19T00:33:54.499Z,77.69
2018-10-19T00:34:54.507Z,77.87
2018-10-19T00:35:54.452Z,77.40
2018-10-19T00:36:54.496Z,77.59
2018-10-19T00:37:54.406Z,76.44
2018-10-19T00:38:54.389Z,77.17
2018-10-19T00:39:54.362Z,78.12
2018-10-19T00:40:54.389Z,78.03
2018-10-19T00:41:54.313Z,76.64
2018-10-19T00:42:54.296Z,76.82
2018-10-19T00:43:54.267Z,77.20
2018-10-19T00:44:54.287Z,77.11
2018-10-19T00:45:54.221Z,76.06
2018-10-19T00:46:54.220Z,75.87
2018-10-19T00:47:54.178Z,76.54
2018-10-19T00:48:54.154Z,76.35
2018-10-19T00:49:54.128Z,75.11
2018-10-19T00:50:54.106Z,75.20
2018-10-19T00:51:54.082Z,75.20
2018-10-19T00:52:54.111Z,75.96
2018-10-19T00:53:54.034Z,76.54
2018-10-19T00:54:54.011Z,77.49
2018-10-19T00:55:53.988Z,76.82
2018-10-19T00:56:53.967Z,77.78
2018-10-19T00:57:56.192Z,77.36
2018-10-19T00:58:53.973Z,76.50
2018-10-19T00:59:53.895Z,76.40
2018-10-19T01:00:53.871Z,74.60
2018-10-19T01:01:53.847Z,73.17
2018-10-19T01:02:53.873Z,73.26
2018-10-19T01:03:54.551Z,72.02
2018-10-19T01:04:53.780Z,71.48
2018-10-19T01:05:53.753Z,71.01
2018-10-19T01:06:53.731Z,70.34
2018-10-19T01:07:53.710Z,70.53
2018-10-19T01:08:53.732Z,69.77
2018-10-19T01:09:53.660Z,69.96
2018-10-19T01:10:53.641Z,68.82
2018-10-19T01:11:53.616Z,69.68
2018-10-19T01:12:53.592Z,70.72
2018-10-19T01:13:53.568Z,71.20
2018-10-19T01:14:53.566Z,71.39
2018-10-19T01:15:53.521Z,72.06
2018-10-19T01:16:53.557Z,71.30
2018-10-19T01:17:53.474Z,71.58
2018-10-19T01:18:53.450Z,71.11
2018-10-19T01:19:54.179Z,70.15
2018-10-19T01:20:53.450Z,69.77
2018-10-19T01:21:53.380Z,69.68
2018-10-19T01:22:53.360Z,70.34
2018-10-19T01:23:53.333Z,71.11
2018-10-19T01:24:53.309Z,71.20
2018-10-19T01:25:53.286Z,71.30
2018-10-19T01:26:53.273Z,70.53
2018-10-19T01:27:53.239Z,70.06
2018-10-19T01:28:53.220Z,70.34
2018-10-19T01:29:53.192Z,71.33
2018-10-19T01:30:53.168Z,71.43
2018-10-19T01:31:53.146Z,71.72
2018-10-19T01:32:53.165Z,71.91
2018-10-19T01:33:53.098Z,72.44
2018-10-19T01:34:53.076Z,71.81
2018-10-19T01:35:53.051Z,72.00
2018-10-19T01:36:53.029Z,72.28
2018-10-19T01:37:53.005Z,72.00
2018-10-19T01:38:52.983Z,71.81
2018-10-19T01:39:52.960Z,71.81
2018-10-19T01:40:52.938Z,71.52
2018-10-19T01:41:52.911Z,72.48
2018-10-19T01:42:52.897Z,72.48
2018-10-19T01:43:52.864Z,72.86
2018-10-19T01:44:52.880Z,72.86
2018-10-19T01:45:52.816Z,72.76
2018-10-19T01:46:52.801Z,73.72
2018-10-19T01:47:52.777Z,73.91
2018-10-19T01:48:52.748Z,73.05
2018-10-19T01:49:52.725Z,73.91
2018-10-19T01:50:52.726Z,73.72
2018-10-19T01:51:52.678Z,73.52
2018-10-19T01:52:52.657Z,74.10
2018-10-19T01:53:52.631Z,73.72
2018-10-19T01:54:52.606Z,74.10
2018-10-19T01:55:52.583Z,73.33
2018-10-19T01:56:52.584Z,74.01
2018-10-19T01:57:52.536Z,73.87
2018-10-19T01:58:52.515Z,73.96
2018-10-19T01:59:52.491Z,73.21
2018-10-19T02:00:52.467Z,72.06
2018-10-19T02:01:52.442Z,71.11
2018-10-19T02:02:52.454Z,70.15
2018-10-19T02:03:52.396Z,70.63
2018-10-19T02:04:52.410Z,71.58
2018-10-19T02:05:52.351Z,72.28
2018-10-19T02:06:52.326Z,71.77
2018-10-19T02:07:52.303Z,73.81
2018-10-19T02:08:52.281Z,74.29
2018-10-19T02:09:52.255Z,74.35
2018-10-19T02:10:52.276Z,73.77
2018-10-19T02:11:52.209Z,73.87
2018-10-19T02:12:52.187Z,73.58
2018-10-19T02:13:52.162Z,73.91
2018-10-19T02:14:52.139Z,73.52
2018-10-19T02:15:52.115Z,72.67
2018-10-19T02:16:52.144Z,73.24
2018-10-19T02:17:52.069Z,72.86
2018-10-19T02:18:52.044Z,73.62
2018-10-19T02:19:52.023Z,74.01
2018-10-19T02:20:52.060Z,73.24
2018-10-19T02:21:51.974Z,72.67
2018-10-19T02:22:53.456Z,72.67
2018-10-19T02:23:51.932Z,72.86
2018-10-19T02:24:51.904Z,72.76
2018-10-19T02:25:51.880Z,72.48
2018-10-19T02:26:51.858Z,72.57
2018-10-19T02:27:51.833Z,73.05
2018-10-19T02:28:52.564Z,72.67
2018-10-19T02:29:51.791Z,72.09
2018-10-19T02:30:51.765Z,72.48
2018-10-19T02:31:51.741Z,72.57
2018-10-19T02:32:51.715Z,73.62
2018-10-19T02:33:51.691Z,73.91
2018-10-19T02:34:51.675Z,74.19
2018-10-19T02:35:51.645Z,74.86
2018-10-19T02:36:51.623Z,74.86
2018-10-19T02:37:51.598Z,74.48
2018-10-19T02:38:51.576Z,75.15
2018-10-19T02:39:51.552Z,74.77
2018-10-19T02:40:51.528Z,75.05
2018-10-19T02:41:51.507Z,75.34
2018-10-19T02:42:51.480Z,75.34
2018-10-19T02:43:51.458Z,75.05
2018-10-19T02:44:51.434Z,75.34
2018-10-19T02:45:51.409Z,75.05
2018-10-19T02:46:51.386Z,76.29
2018-10-19T02:47:51.363Z,76.20
2018-10-19T02:48:51.339Z,75.05
2018-10-19T02:49:51.316Z,75.34
2018-10-19T02:50:51.293Z,76.10
2018-10-19T02:51:51.269Z,75.81
2018-10-19T02:52:51.249Z,75.43
2018-10-19T02:53:51.226Z,75.34
2018-10-19T02:54:51.202Z,74.10
2018-10-19T02:55:51.176Z,74.86
2018-10-19T02:56:51.152Z,74.48
2018-10-19T02:57:51.129Z,74.96
2018-10-19T02:58:51.112Z,73.52
2018-10-19T02:59:51.081Z,72.86
2018-10-19T03:00:51.058Z,73.72
2018-10-19T03:01:51.034Z,73.91
2018-10-19T03:02:51.011Z,73.72
2018-10-19T03:03:50.987Z,73.62
2018-10-19T03:04:50.964Z,73.24
2018-10-19T03:05:50.939Z,73.33
2018-10-19T03:06:50.916Z,73.52
2018-10-19T03:07:50.893Z,73.62
2018-10-19T03:08:50.869Z,73.24
2018-10-19T03:09:50.846Z,73.52
2018-10-19T03:10:50.821Z,72.96
2018-10-19T03:11:50.798Z,73.33
2018-10-19T03:12:50.774Z,72.96
2018-10-19T03:13:50.750Z,73.62
2018-10-19T03:14:50.727Z,73.14
2018-10-19T03:15:50.703Z,73.43
2018-10-19T03:16:50.681Z,73.81
2018-10-19T03:17:50.657Z,73.24
2018-10-19T03:18:50.634Z,72.96
2018-10-19T03:19:50.609Z,72.86
2018-10-19T03:20:50.586Z,73.05
2018-10-19T03:21:50.562Z,73.14
2018-10-19T03:22:50.538Z,72.00
2018-10-19T03:23:50.515Z,72.38
2018-10-19T03:24:50.491Z,72.38
2018-10-19T03:25:50.468Z,72.28
2018-10-19T03:26:50.444Z,72.38
2018-10-19T03:27:50.421Z,72.19
2018-10-19T03:28:50.396Z,72.09
2018-10-19T03:29:50.373Z,72.28
2018-10-19T03:30:50.369Z,72.28
2018-10-19T03:31:50.328Z,72.86
2018-10-19T03:32:50.303Z,72.86
2018-10-19T03:33:50.277Z,72.57
2018-10-19T03:34:50.259Z,72.76
2018-10-19T03:35:50.233Z,72.28
2018-10-19T03:36:50.207Z,73.24
2018-10-19T03:37:50.183Z,72.76
2018-10-19T03:38:50.161Z,72.67
2018-10-19T03:39:50.137Z,72.28
2018-10-19T03:40:50.118Z,71.11
2018-10-19T03:41:50.090Z,71.30
2018-10-19T03:42:50.067Z,71.33
2018-10-19T03:43:50.043Z,71.33
2018-10-19T03:44:50.020Z,71.52
2018-10-19T03:45:49.995Z,71.91
2018-10-19T03:46:50.721Z,71.72
2018-10-19T03:47:49.948Z,72.00
2018-10-19T03:48:49.937Z,72.28
2018-10-19T03:49:49.899Z,72.06
2018-10-19T03:50:49.878Z,72.38
2018-10-19T03:51:49.853Z,72.16
2018-10-19T03:52:49.832Z,71.87
2018-10-19T03:53:49.804Z,71.30
2018-10-19T03:54:49.788Z,71.20
2018-10-19T03:55:49.758Z,71.58
2018-10-19T03:56:49.735Z,71.48
2018-10-19T03:57:49.710Z,71.30
2018-10-19T03:58:49.686Z,70.82
2018-10-19T03:59:49.663Z,71.01
2018-10-19T04:00:49.640Z,71.11
2018-10-19T04:01:49.615Z,70.34
2018-10-19T04:02:49.595Z,69.68
2018-10-19T04:03:49.570Z,70.06
2018-10-19T04:04:49.611Z,70.06
2018-10-19T04:05:49.522Z,69.68
2018-10-19T04:06:49.498Z,69.10
2018-10-19T04:07:50.225Z,68.72
2018-10-19T04:08:49.455Z,69.10
2018-10-19T04:09:49.426Z,69.01
2018-10-19T04:10:49.404Z,69.01
2018-10-19T04:11:49.380Z,69.48
2018-10-19T04:12:49.356Z,68.72
2018-10-19T04:13:49.333Z,68.91
2018-10-19T04:14:49.309Z,69.48
2018-10-19T04:15:49.284Z,68.91
2018-10-19T04:16:49.260Z,68.24
2018-10-19T04:17:49.237Z,68.53
2018-10-19T04:18:49.214Z,68.24
2018-10-19T04:19:49.191Z,68.82
2018-10-19T04:20:49.168Z,68.05
2018-10-19T04:21:49.143Z,67.39
2018-10-19T04:22:49.118Z,66.24
2018-10-19T04:23:49.099Z,66.15
2018-10-19T04:24:49.072Z,66.24
2018-10-19T04:25:49.047Z,65.86
2018-10-19T04:26:49.023Z,66.15
2018-10-19T04:27:49.003Z,65.20
2018-10-19T04:28:48.981Z,65.96
2018-10-19T04:29:48.951Z,66.05
2018-10-19T04:30:48.931Z,66.05
2018-10-19T04:31:48.905Z,65.58
2018-10-19T04:32:48.881Z,65.67
2018-10-19T04:33:48.856Z,65.39
2018-10-19T04:34:48.833Z,65.29
2018-10-19T04:35:48.810Z,65.20
2018-10-19T04:36:48.786Z,65.67
2018-10-19T04:37:48.764Z,66.15
2018-10-19T04:38:48.740Z,65.67
2018-10-19T04:39:48.716Z,66.05
2018-10-19T04:40:48.691Z,65.96
2018-10-19T04:41:48.902Z,65.86
2018-10-19T04:42:48.648Z,65.86
2018-10-19T04:43:48.619Z,65.58
2018-10-19T04:44:48.596Z,65.86
2018-10-19T04:45:48.572Z,65.86
2018-10-19T04:46:48.548Z,65.39
2018-10-19T04:47:48.558Z,66.15
2018-10-19T04:48:48.507Z,65.96
2018-10-19T04:49:48.477Z,66.24
2018-10-19T04:50:48.453Z,66.72
2018-10-19T04:51:48.430Z,66.44
2018-10-19T04:52:48.406Z,66.53
2018-10-19T04:53:48.464Z,66.82
2018-10-19T04:54:48.361Z,66.15
2018-10-19T04:55:48.335Z,66.53
2018-10-19T04:56:48.314Z,66.24
2018-10-19T04:57:48.286Z,65.77
2018-10-19T04:58:48.264Z,66.44
2018-10-19T04:59:48.240Z,65.86
2018-10-19T05:00:48.217Z,65.96
2018-10-19T05:01:48.193Z,65.86
2018-10-19T05:02:48.241Z,66.53
2018-10-19T05:03:48.147Z,66.15
2018-10-19T05:04:48.218Z,66.34
2018-10-19T05:05:48.113Z,66.34
2018-10-19T05:06:48.203Z,66.53
2018-10-19T05:07:48.095Z,66.53
2018-10-19T05:08:48.027Z,66.63
2018-10-19T05:09:48.001Z,65.96
2018-10-19T05:10:47.978Z,66.15
2018-10-19T05:11:47.955Z,67.29
2018-10-19T05:12:47.966Z,67.45
2018-10-19T05:13:47.907Z,67.20
2018-10-19T05:14:47.885Z,67.55
2018-10-19T05:15:49.361Z,66.34
2018-10-19T05:16:47.836Z,66.31
2018-10-19T05:17:47.812Z,65.73
2018-10-19T05:18:47.796Z,64.59
2018-10-19T05:19:47.764Z,64.97
2018-10-19T05:20:47.741Z,63.83
2018-10-19T05:21:47.719Z,63.17
2018-10-19T05:22:47.694Z,62.88
2018-10-19T05:23:47.670Z,63.64
2018-10-19T05:24:47.678Z,64.50
2018-10-19T05:25:47.622Z,64.87
2018-10-19T05:26:47.599Z,63.64
2018-10-19T05:27:47.575Z,63.35
2018-10-19T05:28:47.552Z,63.07
2018-10-19T05:29:47.528Z,62.49
2018-10-19T05:30:47.505Z,62.49
2018-10-19T05:31:47.479Z,62.21
2018-10-19T05:32:47.461Z,61.07
2018-10-19T05:33:47.432Z,60.69
2018-10-19T05:34:47.412Z,60.21
2018-10-19T05:35:47.392Z,60.69
2018-10-19T05:36:47.361Z,60.69
2018-10-19T05:37:47.339Z,60.97
2018-10-19T05:38:47.315Z,60.30
2018-10-19T05:39:47.291Z,60.78
2018-10-19T05:40:47.266Z,60.88
2018-10-19T05:41:47.242Z,60.88
2018-10-19T05:42:47.219Z,60.78
2018-10-19T05:43:47.196Z,60.49
2018-10-19T05:44:47.174Z,60.30
2018-10-19T05:45:47.150Z,60.49
2018-10-19T05:46:47.126Z,60.97
2018-10-19T05:47:47.100Z,60.59
2018-10-19T05:48:47.077Z,61.16
2018-10-19T05:49:47.053Z,60.97
2018-10-19T05:50:47.029Z,60.78
2018-10-19T05:51:47.008Z,60.21
2018-10-19T05:52:46.981Z,60.97
2018-10-19T05:53:46.957Z,60.49
2018-10-19T05:54:46.933Z,60.69
2018-10-19T05:55:46.909Z,60.40
2018-10-19T05:56:46.886Z,59.45
2018-10-19T05:57:46.861Z,58.69
2018-10-19T05:58:46.839Z,58.11
2018-10-19T05:59:46.816Z,58.69
2018-10-19T06:00:46.792Z,57.73
2018-10-19T06:01:46.770Z,56.87
2018-10-19T06:02:46.744Z,57.48
2018-10-19T06:03:46.720Z,57.76
2018-10-19T06:04:46.696Z,57.86
2018-10-19T06:05:46.671Z,58.62
2018-10-19T06:06:46.648Z,58.62
2018-10-19T06:07:46.625Z,59.38
2018-10-19T06:08:46.602Z,59.09
2018-10-19T06:09:46.580Z,59.38
2018-10-19T06:10:46.555Z,59.38
2018-10-19T06:11:46.534Z,59.38
2018-10-19T06:12:46.513Z,59.31
2018-10-19T06:13:46.543Z,60.46
2018-10-19T06:14:46.462Z,61.13
2018-10-19T06:15:46.438Z,60.75
2018-10-19T06:16:46.414Z,62.37
2018-10-19T06:17:46.390Z,62.84
2018-10-19T06:18:46.366Z,65.42
2018-10-19T06:19:46.344Z,67.33
2018-10-19T06:20:46.321Z,67.80
2018-10-19T06:21:46.296Z,68.47
2018-10-19T06:22:46.274Z,69.90
2018-10-19T06:23:46.251Z,71.04
2018-10-19T06:24:46.980Z,71.33
2018-10-19T06:25:46.210Z,70.86
2018-10-19T06:26:46.182Z,71.52
2018-10-19T06:27:46.158Z,74.01
2018-10-19T06:28:46.136Z,74.19
2018-10-19T06:29:46.115Z,74.38
2018-10-19T06:30:46.091Z,75.91
2018-10-19T06:31:46.065Z,76.39
2018-10-19T06:32:46.047Z,76.10
2018-10-19T06:33:46.111Z,76.14
2018-10-19T06:34:45.996Z,76.67
2018-10-19T06:35:45.973Z,76.48
2018-10-19T06:36:45.950Z,76.90
2018-10-19T06:37:45.926Z,77.57
2018-10-19T06:38:45.904Z,77.19
2018-10-19T06:39:45.882Z,77.67
2018-10-19T06:40:45.971Z,77.25
2018-10-19T06:41:45.835Z,76.71
2018-10-19T06:42:45.812Z,77.09
2018-10-19T06:43:45.792Z,77.47
2018-10-19T06:44:45.766Z,76.62
2018-10-19T06:45:45.743Z,76.14
2018-10-19T06:46:45.797Z,76.42
2018-10-19T06:47:45.699Z,76.90
2018-10-19T06:48:45.676Z,76.90
2018-10-19T06:49:45.652Z,77.38
2018-10-19T06:50:45.629Z,77.28
2018-10-19T06:51:45.607Z,78.33
2018-10-19T06:52:45.584Z,79.00
2018-10-19T06:53:45.560Z,78.72
2018-10-19T06:54:45.537Z,78.33
2018-10-19T06:55:45.514Z,78.62
2018-10-19T06:56:45.492Z,79.23
2018-10-19T06:57:45.471Z,78.47
2018-10-19T06:58:45.469Z,79.33
2018-10-19T06:59:45.424Z,79.04
2018-10-19T07:00:45.401Z,80.05
2018-10-19T07:01:45.377Z,79.52
2018-10-19T07:02:45.355Z,80.09
2018-10-19T07:03:45.332Z,80.85
2018-10-19T07:04:45.310Z,80.76
2018-10-19T07:05:45.331Z,80.76
2018-10-19T07:06:45.264Z,82.29
2018-10-19T07:07:46.039Z,82.86
2018-10-19T07:08:45.219Z,82.86
2018-10-19T07:09:45.200Z,82.67
2018-10-19T07:10:45.175Z,81.81
2018-10-19T07:11:45.152Z,80.57
2018-10-19T07:12:45.130Z,81.81
2018-10-19T07:13:45.106Z,82.29
2018-10-19T07:14:45.083Z,83.05
2018-10-19T07:15:45.079Z,82.95
2018-10-19T07:16:45.039Z,82.67
2018-10-19T07:17:45.016Z,82.09
2018-10-19T07:18:44.993Z,82.48
2018-10-19T07:19:44.972Z,82.29
2018-10-19T07:20:44.950Z,82.48
2018-10-19T07:21:45.008Z,81.62
2018-10-19T07:22:44.907Z,81.71
2018-10-19T07:23:47.885Z,82.38
2018-10-19T07:24:44.860Z,83.14
2018-10-19T07:25:44.837Z,82.76
2018-10-19T07:26:44.814Z,83.81
2018-10-19T07:27:44.793Z,83.53
2018-10-19T07:28:44.770Z,84.20
2018-10-19T07:29:44.746Z,84.77
2018-10-19T07:30:44.724Z,84.29
2018-10-19T07:31:44.703Z,84.33
2018-10-19T07:32:44.680Z,84.67
2018-10-19T07:33:44.658Z,84.81
2018-10-19T07:34:44.635Z,86.05
2018-10-19T07:35:44.613Z,87.35
2018-10-19T07:36:44.590Z,86.87
2018-10-19T07:37:44.567Z,85.82
2018-10-19T07:38:44.549Z,85.25
2018-10-19T07:39:44.525Z,85.25
2018-10-19T07:40:44.502Z,85.72
2018-10-19T07:41:44.479Z,85.72
2018-10-19T07:42:44.460Z,87.01
2018-10-19T07:43:44.435Z,86.15
2018-10-19T07:44:44.412Z,86.53
2018-10-19T07:45:44.391Z,85.19
2018-10-19T07:46:44.367Z,86.15
2018-10-19T07:47:44.456Z,86.82
2018-10-19T07:48:44.324Z,87.68
2018-10-19T07:49:44.301Z,88.25
2018-10-19T07:50:44.279Z,87.87
2018-10-19T07:51:44.257Z,87.58
2018-10-19T07:52:44.235Z,87.54
2018-10-19T07:53:44.217Z,86.58
2018-10-19T07:54:44.191Z,85.72
2018-10-19T07:55:44.169Z,86.39
2018-10-19T07:56:44.148Z,85.67
2018-10-19T07:57:44.126Z,84.81
2018-10-19T07:58:44.103Z,85.29
2018-10-19T07:59:44.082Z,86.15
2018-10-19T08:00:44.120Z,86.15
2018-10-19T08:01:44.037Z,86.91
2018-10-19T08:02:44.016Z,86.82
2018-10-19T08:03:43.994Z,86.43
2018-10-19T08:04:43.973Z,86.15
2018-10-19T08:05:43.953Z,85.77
2018-10-19T08:06:43.929Z,86.91
2018-10-19T08:07:46.159Z,87.20
2018-10-19T08:08:43.886Z,87.01
2018-10-19T08:09:43.863Z,86.43
2018-10-19T08:10:43.842Z,84.91
2018-10-19T08:11:43.824Z,86.05
2018-10-19T08:12:43.798Z,85.67
2018-10-19T08:13:44.527Z,87.20
2018-10-19T08:14:43.756Z,87.39
2018-10-19T08:15:43.736Z,86.24
2018-10-19T08:16:43.710Z,86.91
2018-10-19T08:17:43.689Z,85.86
2018-10-19T08:18:43.666Z,85.77
2018-10-19T08:19:43.646Z,86.24
2018-10-19T08:20:43.623Z,87.29
2018-10-19T08:21:43.600Z,86.43
2018-10-19T08:22:43.580Z,85.63
2018-10-19T08:23:43.557Z,85.29
2018-10-19T08:24:43.537Z,85.77
2018-10-19T08:25:43.515Z,87.87
2018-10-19T08:26:43.493Z,87.58
2018-10-19T08:27:43.471Z,88.44
2018-10-19T08:28:43.450Z,87.48
2018-10-19T08:29:43.426Z,87.96
2018-10-19T08:30:43.405Z,87.20
2018-10-19T08:31:43.385Z,86.58
2018-10-19T08:32:43.362Z,85.72
2018-10-19T08:33:43.341Z,85.82
2018-10-19T08:34:43.319Z,85.25
2018-10-19T08:35:43.298Z,84.20
2018-10-19T08:36:43.275Z,85.15
2018-10-19T08:37:43.257Z,84.77
2018-10-19T08:38:43.233Z,85.58
2018-10-19T08:39:43.210Z,85.44
2018-10-19T08:40:43.190Z,85.29
2018-10-19T08:41:43.266Z,85.15
2018-10-19T08:42:43.146Z,86.15
2018-10-19T08:43:43.124Z,85.58
2018-10-19T08:44:43.101Z,85.19
2018-10-19T08:45:43.078Z,85.10
2018-10-19T08:46:43.057Z,85.96
2018-10-19T08:47:43.126Z,85.38
2018-10-19T08:48:43.016Z,85.10
2018-10-19T08:49:42.994Z,85.86
2018-10-19T08:50:42.972Z,84.91
2018-10-19T08:51:42.950Z,84.52
2018-10-19T08:52:42.931Z,84.05
2018-10-19T08:53:42.909Z,84.33
2018-10-19T08:54:42.980Z,85.00
2018-10-19T08:55:42.862Z,85.00
2018-10-19T08:56:42.841Z,85.19
2018-10-19T08:57:42.886Z,85.38
2018-10-19T08:58:42.799Z,85.10
2018-10-19T08:59:42.775Z,85.38
2018-10-19T09:00:42.753Z,86.05
2018-10-19T09:01:42.731Z,85.48
2018-10-19T09:02:42.710Z,85.96
2018-10-19T09:03:42.693Z,86.05
2018-10-19T09:04:42.668Z,85.19
2018-10-19T09:05:42.645Z,84.81
2018-10-19T09:06:42.623Z,85.58
2018-10-19T09:07:42.601Z,85.29
2018-10-19T09:08:42.580Z,85.81
2018-10-19T09:09:42.561Z,85.81
2018-10-19T09:10:42.566Z,86.38
2018-10-19T09:11:42.613Z,88.10
2018-10-19T09:12:42.597Z,88.10
2018-10-19T09:13:42.471Z,88.10
2018-10-19T09:14:42.451Z,89.59
2018-10-19T09:15:42.429Z,89.06
2018-10-19T09:16:42.408Z,87.96
2018-10-19T09:17:42.386Z,87.48
2018-10-19T09:18:42.467Z,88.96
2018-10-19T09:19:42.343Z,89.34
2018-10-19T09:20:42.321Z,89.44
2018-10-19T09:21:42.301Z,88.87
2018-10-19T09:22:42.280Z,89.92
2018-10-19T09:23:42.257Z,89.59
2018-10-19T09:24:42.235Z,89.59
2018-10-19T09:25:42.215Z,89.59
2018-10-19T09:26:42.192Z,88.87
2018-10-19T09:27:42.173Z,88.96
2018-10-19T09:28:42.150Z,90.68
2018-10-19T09:29:42.128Z,89.53
2018-10-19T09:30:42.107Z,90.20
2018-10-19T09:31:42.086Z,89.73
2018-10-19T09:32:42.066Z,90.49
2018-10-19T09:33:42.044Z,90.30
2018-10-19T09:34:42.022Z,91.25
2018-10-19T09:35:42.049Z,90.88
2018-10-19T09:36:42.077Z,92.07
2018-10-19T09:37:44.963Z,92.45
2018-10-19T09:38:41.937Z,91.59
2018-10-19T09:39:41.915Z,91.68
2018-10-19T09:40:41.896Z,92.93
2018-10-19T09:41:41.873Z,93.98
2018-10-19T09:42:41.852Z,93.50
2018-10-19T09:43:41.833Z,94.07
2018-10-19T09:44:41.811Z,93.60
2018-10-19T09:45:41.796Z,93.31
2018-10-19T09:46:41.768Z,94.36
2018-10-19T09:47:41.820Z,94.07
2018-10-19T09:48:41.726Z,93.84
2018-10-19T09:49:41.712Z,92.79
2018-10-19T09:50:41.686Z,92.97
2018-10-19T09:51:41.663Z,92.88
2018-10-19T09:52:41.642Z,92.69
2018-10-19T09:53:41.621Z,92.69
2018-10-19T09:54:41.601Z,92.50
2018-10-19T09:55:41.579Z,92.21
2018-10-19T09:56:41.559Z,92.69
2018-10-19T09:57:41.537Z,92.45
2018-10-19T09:58:41.516Z,92.88
2018-10-19T09:59:41.496Z,93.60
2018-10-19T10:00:41.474Z,93.16
2018-10-19T10:01:41.453Z,92.11
2018-10-19T10:02:41.436Z,92.50
2018-10-19T10:03:41.411Z,92.02
2018-10-19T10:04:41.392Z,92.30
2018-10-19T10:05:41.369Z,92.79
2018-10-19T10:06:41.349Z,92.30
2018-10-19T10:07:41.358Z,92.88
2018-10-19T10:08:41.306Z,91.93
2018-10-19T10:09:41.285Z,92.21
2018-10-19T10:10:41.265Z,92.16
2018-10-19T10:11:41.248Z,92.02
2018-10-19T10:12:41.223Z,93.12
2018-10-19T10:13:41.207Z,93.50
2018-10-19T10:14:41.192Z,93.60
2018-10-19T10:15:41.253Z,93.84
2018-10-19T10:16:41.140Z,93.16
2018-10-19T10:17:41.119Z,91.74
2018-10-19T10:18:41.098Z,91.74
2018-10-19T10:19:41.078Z,92.21
2018-10-19T10:20:41.058Z,92.50
2018-10-19T10:21:41.039Z,92.11
2018-10-19T10:22:41.018Z,92.74
2018-10-19T10:23:40.995Z,93.69
2018-10-19T10:24:40.982Z,93.79
2018-10-19T10:25:40.953Z,94.46
2018-10-19T10:26:40.931Z,95.12
2018-10-19T10:27:40.912Z,95.12
2018-10-19T10:28:40.890Z,94.65
2018-10-19T10:29:40.896Z,93.88
2018-10-19T10:30:40.847Z,95.36
2018-10-19T10:31:40.827Z,96.32
2018-10-19T10:32:40.808Z,95.36
2018-10-19T10:33:40.790Z,95.56
2018-10-19T10:34:40.768Z,95.07
2018-10-19T10:35:40.746Z,96.80
2018-10-19T10:36:40.726Z,96.99
2018-10-19T10:37:40.703Z,97.08
2018-10-19T10:38:40.753Z,96.22
2018-10-19T10:39:40.663Z,96.13
2018-10-19T10:40:40.644Z,96.89
2018-10-19T10:41:40.622Z,96.42
2018-10-19T10:42:40.602Z,97.04
2018-10-19T10:43:40.581Z,97.90
2018-10-19T10:44:40.561Z,97.18
2018-10-19T10:45:40.540Z,95.56
2018-10-19T10:46:40.520Z,96.42
2018-10-19T10:47:40.502Z,96.56
2018-10-19T10:48:40.482Z,97.71
2018-10-19T10:49:40.459Z,96.84
2018-10-19T10:50:40.440Z,97.33
2018-10-19T10:51:40.419Z,97.23
2018-10-19T10:52:40.399Z,97.61
2018-10-19T10:53:40.379Z,97.80
2018-10-19T10:54:40.359Z,97.18
2018-10-19T10:55:40.339Z,96.80
2018-10-19T10:56:40.319Z,96.18
2018-10-19T10:57:40.298Z,96.61
2018-10-19T10:58:40.278Z,97.47
2018-10-19T10:59:40.260Z,96.80
2018-10-19T11:00:40.240Z,97.75
2018-10-19T11:01:40.219Z,97.13
2018-10-19T11:02:40.201Z,97.04
2018-10-19T11:03:40.179Z,98.09
2018-10-19T11:04:40.161Z,97.90
2018-10-19T11:05:40.140Z,97.90
2018-10-19T11:06:40.121Z,97.47
2018-10-19T11:07:41.657Z,97.90
2018-10-19T11:08:40.081Z,97.75
2018-10-19T11:09:40.059Z,98.62
2018-10-19T11:10:40.040Z,98.57
2018-10-19T11:11:40.022Z,97.42
2018-10-19T11:12:40.001Z,97.71
2018-10-19T11:13:39.981Z,97.90
2018-10-19T11:14:39.961Z,97.23
2018-10-19T11:15:39.942Z,97.42
2018-10-19T11:16:39.925Z,97.56
2018-10-19T11:17:39.908Z,97.85
2018-10-19T11:18:39.883Z,98.19
2018-10-19T11:19:39.864Z,98.28
2018-10-19T11:20:39.847Z,97.80
2018-10-19T11:21:39.824Z,97.56
2018-10-19T11:22:39.806Z,97.75
2018-10-19T11:23:39.786Z,97.42
2018-10-19T11:24:39.769Z,98.66
2018-10-19T11:25:39.749Z,98.19
2018-10-19T11:26:39.727Z,98.00
2018-10-19T11:27:39.708Z,98.19
2018-10-19T11:28:39.689Z,98.86
2018-10-19T11:29:41.169Z,98.19
2018-10-19T11:30:39.817Z,97.61
2018-10-19T11:31:39.628Z,97.52
2018-10-19T11:32:39.610Z,98.38
2018-10-19T11:33:39.589Z,98.43
2018-10-19T11:34:39.570Z,98.43
2018-10-19T11:35:39.550Z,98.33
2018-10-19T11:36:39.539Z,99.10
2018-10-19T11:37:39.558Z,98.09
2018-10-19T11:38:39.491Z,98.00
2018-10-19T11:39:39.473Z,98.24
2018-10-19T11:40:39.453Z,98.43
2018-10-19T11:41:39.433Z,97.95
2018-10-19T11:42:39.415Z,98.67
2018-10-19T11:43:39.397Z,98.76
2018-10-19T11:44:39.378Z,98.47
2018-10-19T11:45:39.356Z,98.52
2018-10-19T11:46:39.394Z,98.66
2018-10-19T11:47:39.319Z,99.05
2018-10-19T11:48:39.357Z,98.38
2018-10-19T11:49:39.279Z,98.95
2018-10-19T11:50:39.259Z,98.47
2018-10-19T11:51:39.258Z,98.86
2018-10-19T11:52:39.221Z,99.52
2018-10-19T11:53:39.201Z,98.86
2018-10-19T11:54:39.184Z,98.28
2018-10-19T11:55:39.162Z,98.57
2018-10-19T11:56:39.147Z,99.10
2018-10-19T11:57:39.123Z,98.62
2018-10-19T11:58:39.105Z,98.43
2018-10-19T11:59:39.085Z,98.43
2018-10-19T12:00:39.064Z,98.91
2018-10-19T12:01:39.047Z,98.52
2018-10-19T12:02:39.024Z,98.43
2018-10-19T12:03:39.124Z,98.91
2018-10-19T12:04:38.985Z,99.77
2018-10-19T12:05:38.967Z,98.33
2018-10-19T12:06:38.949Z,98.62
2018-10-19T12:07:38.926Z,98.52
2018-10-19T12:08:38.907Z,98.91
2018-10-19T12:09:38.889Z,98.62
2018-10-19T12:10:38.896Z,98.62
2018-10-19T12:11:38.849Z,98.71
2018-10-19T12:12:38.828Z,98.67
2018-10-19T12:13:38.811Z,98.76
2018-10-19T12:14:38.786Z,98.76
2018-10-19T12:15:38.768Z,98.76
2018-10-19T12:16:38.916Z,98.62
2018-10-19T12:17:38.728Z,98.57
2018-10-19T12:18:38.708Z,99.15
2018-10-19T12:19:38.690Z,98.76
2018-10-19T12:20:38.704Z,98.76
2018-10-19T12:21:38.647Z,98.43
2018-10-19T12:22:38.628Z,98.71
2018-10-19T12:23:38.608Z,98.81
2018-10-19T12:24:38.588Z,99.10
2018-10-19T12:25:38.569Z,98.05
2018-10-19T12:26:38.550Z,98.91
2018-10-19T12:27:38.530Z,98.71
2018-10-19T12:28:38.508Z,99.05
2018-10-19T12:29:38.488Z,98.28
2018-10-19T12:30:38.469Z,98.38
2018-10-19T12:31:38.455Z,99.15
2018-10-19T12:32:38.428Z,99.34
2018-10-19T12:33:38.407Z,98.71
2018-10-19T12:34:38.388Z,98.47
2018-10-19T12:35:38.471Z,98.67
2018-10-19T12:36:38.347Z,99.05
2018-10-19T12:37:38.331Z,98.67
2018-10-19T12:38:38.306Z,99.34
2018-10-19T12:39:38.285Z,98.76
2018-10-19T12:40:38.266Z,98.62
2018-10-19T12:41:38.245Z,98.81
2018-10-19T12:42:38.225Z,98.52
2018-10-19T12:43:38.206Z,98.43
2018-10-19T12:44:38.185Z,98.76
2018-10-19T12:45:38.163Z,99.34
2018-10-19T12:46:38.143Z,98.76
2018-10-19T12:47:38.123Z,99.34
2018-10-19T12:48:38.104Z,98.76
2018-10-19T12:49:38.081Z,98.76
2018-10-19T12:50:38.062Z,98.67
2018-10-19T12:51:38.047Z,98.86
2018-10-19T12:52:38.024Z,98.67